Time;durP1;ratioP1;P1;durP2;ratioP2;P2;SDS_P1;SDS_P2;PMS_P1;PMS_P2;Temp;Humidity;BMP_temperature;BMP_pressure;BME280_temperature;BME280_humidity;BME280_pressure;Samples;Min_cycle;Max_cycle;Signal;HPM_P1;HPM_P2
2021/09/05 00:01:28;;;;;;;;;;;14.20;99.90;;;;;;5094305;28;19998;-76
2021/09/05 00:04:00;;;;;;;;;;;14.20;99.90;;;;;;5087547;28;19913;-76
2021/09/05 00:06:26;;;;;;;;;;;14.20;99.90;;;;;;5072244;28;20014;-75
2021/09/05 00:08:51;;;;;;;;;;;14.20;99.90;;;;;;5087798;28;19966;-77
2021/09/05 00:11:17;;;;;;;;;;;14.20;99.90;;;;;;5069188;28;19940;-75
2021/09/05 00:13:42;;;;;;;;;;;14.10;99.90;;;;;;5085699;28;19920;-75
2021/09/05 00:16:08;;;;;;;;;;;14.10;99.90;;;;;;5084261;28;19931;-74
2021/09/05 00:18:33;;;;;;;;;;;14.10;99.90;;;;;;5068078;28;20117;-78
2021/09/05 00:20:59;;;;;;;;;;;14.00;99.90;;;;;;5090157;28;20326;-75
2021/09/05 00:23:24;;;;;;;;;;;14.00;99.90;;;;;;5084842;28;19920;-77
2021/09/05 00:25:50;;;;;;;;;;;14.00;99.90;;;;;;5088447;28;19920;-75
2021/09/05 00:28:16;;;;;;;;;;;14.10;99.90;;;;;;5065481;28;20200;-75
2021/09/05 00:30:41;;;;;;;;;;;14.00;99.90;;;;;;5072652;28;19966;-77
2021/09/05 00:33:07;;;;;;;;;;;14.00;99.90;;;;;;5082481;28;20294;-75
2021/09/05 00:35:34;;;;;;;;;;;14.00;99.90;;;;;;5092716;28;19912;-76
2021/09/05 00:37:59;;;;;;;;;;;14.00;99.90;;;;;;5076687;28;20299;-77
2021/09/05 00:40:25;;;;;;;;;;;14.00;99.90;;;;;;5076387;28;19912;-75
2021/09/05 00:42:51;;;;;;;;;;;14.00;99.90;;;;;;5094986;28;19912;-75
2021/09/05 00:45:16;;;;;;;;;;;14.00;99.90;;;;;;5094394;28;19908;-77
2021/09/05 00:47:42;;;;;;;;;;;14.00;99.90;;;;;;5087859;28;19919;-74
2021/09/05 00:50:08;;;;;;;;;;;14.00;99.90;;;;;;5075276;28;19912;-75
2021/09/05 00:52:33;;;;;;;;;;;14.00;99.90;;;;;;5093404;28;21024;-75
2021/09/05 00:54:59;;;;;;;;;;;14.10;99.90;;;;;;5093755;28;19923;-75
2021/09/05 00:57:25;;;;;;;;;;;14.10;99.90;;;;;;5094101;28;19927;-74
2021/09/05 00:59:50;;;;;;;;;;;14.10;99.90;;;;;;5076204;28;19920;-74
2021/09/05 01:02:16;;;;;;;;;;;14.10;99.90;;;;;;5068715;28;20227;-77
2021/09/05 01:04:42;;;;;;;;;;;14.10;99.90;;;;;;5091288;28;19959;-74
2021/09/05 01:07:08;;;;;;;;;;;14.00;99.90;;;;;;5093463;28;19951;-74
2021/09/05 01:09:34;;;;;;;;;;;14.10;99.90;;;;;;5088472;28;19920;-74
2021/09/05 01:12:00;;;;;;;;;;;14.10;99.90;;;;;;5062717;28;20228;-74
2021/09/05 01:14:26;;;;;;;;;;;14.00;99.90;;;;;;5093508;28;19916;-77
2021/09/05 01:16:52;;;;;;;;;;;14.00;99.90;;;;;;5094554;28;19908;-75
2021/09/05 01:19:19;;;;;;;;;;;13.90;99.90;;;;;;5093485;28;19983;-74
2021/09/05 01:21:46;;;;;;;;;;;13.90;99.90;;;;;;5094090;28;20005;-75
2021/09/05 01:24:12;;;;;;;;;;;13.80;99.90;;;;;;5093759;28;19920;-77
2021/09/05 01:26:46;;;;;;;;;;;13.80;99.90;;;;;;5073574;28;19947;-75
2021/09/05 01:29:13;;;;;;;;;;;13.70;99.90;;;;;;5076916;28;20294;-74
2021/09/05 01:31:40;;;;;;;;;;;13.70;99.90;;;;;;5091901;28;19926;-75
2021/09/05 01:34:06;;;;;;;;;;;13.60;99.90;;;;;;5092923;28;19916;-76
2021/09/05 01:36:32;;;;;;;;;;;13.50;99.90;;;;;;5082764;28;20016;-77
2021/09/05 01:38:58;;;;;;;;;;;13.50;99.90;;;;;;5090702;28;19915;-74
2021/09/05 01:41:24;;;;;;;;;;;13.50;99.90;;;;;;5094217;28;19920;-75
2021/09/05 01:43:49;;;;;;;;;;;13.60;99.90;;;;;;5074497;28;19912;-76
2021/09/05 01:46:15;;;;;;;;;;;13.50;99.90;;;;;;5086054;28;19913;-75
2021/09/05 01:48:41;;;;;;;;;;;13.50;99.90;;;;;;5067899;28;19920;-75
2021/09/05 01:51:06;;;;;;;;;;;13.50;99.90;;;;;;5088212;28;19916;-76
2021/09/05 01:53:34;;;;;;;;;;;13.60;99.90;;;;;;5096651;28;19957;-76
2021/09/05 01:55:59;;;;;;;;;;;13.50;99.90;;;;;;5095935;28;20309;-75
2021/09/05 01:58:25;;;;;;;;;;;13.50;99.90;;;;;;5096736;28;19947;-76
2021/09/05 02:00:53;;;;;;;;;;;13.50;99.90;;;;;;5095035;28;20193;-74
2021/09/05 02:03:18;;;;;;;;;;;13.50;99.90;;;;;;5097548;28;19916;-76
2021/09/05 02:05:44;;;;;;;;;;;13.60;99.90;;;;;;5097314;28;19923;-76
2021/09/05 02:08:09;;;;;;;;;;;13.60;99.90;;;;;;5095557;28;19912;-75
2021/09/05 02:10:35;;;;;;;;;;;13.60;99.90;;;;;;5097747;28;19912;-77
2021/09/05 02:13:00;;;;;;;;;;;13.60;99.90;;;;;;5097580;28;19916;-75
2021/09/05 02:15:26;;;;;;;;;;;13.50;99.90;;;;;;5092666;28;19916;-77
2021/09/05 02:17:52;;;;;;;;;;;13.50;99.90;;;;;;5073060;28;20359;-76
2021/09/05 02:20:17;;;;;;;;;;;13.50;99.90;;;;;;5095914;28;19919;-75
2021/09/05 02:22:43;;;;;;;;;;;13.40;99.90;;;;;;5097385;28;19908;-77
2021/09/05 02:25:09;;;;;;;;;;;13.40;99.90;;;;;;5092780;28;19923;-77
2021/09/05 02:27:34;;;;;;;;;;;13.40;99.90;;;;;;5097568;28;19920;-76
2021/09/05 02:30:00;;;;;;;;;;;13.40;99.90;;;;;;5080077;28;20303;-74
2021/09/05 02:32:25;;;;;;;;;;;13.40;99.90;;;;;;5064101;28;19999;-76
2021/09/05 02:34:51;;;;;;;;;;;13.40;99.90;;;;;;5094765;28;19916;-75
2021/09/05 02:37:16;;;;;;;;;;;13.40;99.90;;;;;;5079386;28;20328;-75
2021/09/05 02:39:42;;;;;;;;;;;13.40;99.90;;;;;;5077716;28;19916;-76
2021/09/05 02:42:08;;;;;;;;;;;13.40;99.90;;;;;;5086580;28;19917;-77
2021/09/05 02:44:33;;;;;;;;;;;13.40;99.90;;;;;;5078616;28;19939;-76
2021/09/05 02:46:59;;;;;;;;;;;13.30;99.90;;;;;;5096863;28;19974;-75
2021/09/05 02:49:25;;;;;;;;;;;13.30;99.90;;;;;;5091485;28;19916;-76
2021/09/05 02:51:50;;;;;;;;;;;13.30;99.90;;;;;;5094098;28;20329;-75
2021/09/05 02:54:16;;;;;;;;;;;13.30;99.90;;;;;;5078577;28;19914;-75
2021/09/05 02:56:41;;;;;;;;;;;13.30;99.90;;;;;;5096482;28;19915;-76
2021/09/05 02:59:07;;;;;;;;;;;13.30;99.90;;;;;;5096436;28;20010;-76
2021/09/05 03:01:32;;;;;;;;;;;13.20;99.90;;;;;;5093253;28;20105;-75
2021/09/05 03:03:58;;;;;;;;;;;13.20;99.90;;;;;;5093247;28;19923;-76
2021/09/05 03:06:24;;;;;;;;;;;13.20;99.90;;;;;;5096308;28;19912;-76
2021/09/05 03:08:49;;;;;;;;;;;13.20;99.90;;;;;;5078801;28;19918;-75
2021/09/05 03:11:15;;;;;;;;;;;13.20;99.90;;;;;;5077834;28;19912;-75
2021/09/05 03:13:42;;;;;;;;;;;13.10;99.90;;;;;;5078804;28;19916;-75
2021/09/05 03:16:08;;;;;;;;;;;13.10;99.90;;;;;;5077998;28;19961;-75
2021/09/05 03:18:34;;;;;;;;;;;13.20;99.90;;;;;;5095838;28;20301;-75
2021/09/05 03:20:59;;;;;;;;;;;13.10;99.90;;;;;;5096276;28;20011;-76
2021/09/05 03:23:25;;;;;;;;;;;13.10;99.90;;;;;;5095085;28;19908;-75
2021/09/05 03:25:50;;;;;;;;;;;13.10;99.90;;;;;;5093544;28;20188;-75
2021/09/05 03:28:16;;;;;;;;;;;13.10;99.90;;;;;;5096632;28;19912;-75
2021/09/05 03:30:41;;;;;;;;;;;13.10;99.90;;;;;;5085511;28;19999;-75
2021/09/05 03:33:07;;;;;;;;;;;13.00;99.90;;;;;;5078658;28;20238;-76
2021/09/05 03:35:32;;;;;;;;;;;13.00;99.90;;;;;;5078610;28;19952;-75
2021/09/05 03:37:58;;;;;;;;;;;13.10;99.90;;;;;;5093520;28;19912;-75
2021/09/05 03:40:23;;;;;;;;;;;13.10;99.90;;;;;;5094907;28;20287;-74
2021/09/05 03:42:49;;;;;;;;;;;13.00;99.90;;;;;;5095981;28;19916;-77
2021/09/05 03:45:15;;;;;;;;;;;13.00;99.90;;;;;;5095447;28;20302;-75
2021/09/05 03:47:40;;;;;;;;;;;13.00;99.90;;;;;;5095850;28;19919;-75
2021/09/05 03:50:06;;;;;;;;;;;13.00;99.90;;;;;;5084480;28;20196;-75
2021/09/05 03:52:33;;;;;;;;;;;13.00;99.90;;;;;;5072108;28;20361;-74
2021/09/05 03:54:59;;;;;;;;;;;13.00;99.90;;;;;;5085562;28;20014;-76
2021/09/05 03:57:25;;;;;;;;;;;13.00;99.90;;;;;;5093423;28;20034;-76
2021/09/05 03:59:50;;;;;;;;;;;13.10;99.90;;;;;;5081838;28;19920;-75
2021/09/05 04:02:16;;;;;;;;;;;13.10;99.90;;;;;;5074350;28;19912;-76
2021/09/05 04:04:41;;;;;;;;;;;13.00;99.90;;;;;;5083076;28;19908;-74
2021/09/05 04:07:10;;;;;;;;;;;13.00;99.90;;;;;;5093449;28;19912;-75
2021/09/05 04:12:20;;;;;;;;;;;13.10;99.90;;;;;;5082961;28;20364;-77
2021/09/05 04:14:46;;;;;;;;;;;13.00;99.90;;;;;;5093452;28;19908;-77
2021/09/05 04:17:12;;;;;;;;;;;13.00;99.90;;;;;;5091608;28;19996;-75
2021/09/05 04:19:37;;;;;;;;;;;13.00;99.90;;;;;;5093522;28;20002;-77
2021/09/05 04:22:03;;;;;;;;;;;13.10;99.90;;;;;;5089629;28;19916;-75
2021/09/05 04:24:29;;;;;;;;;;;13.10;99.90;;;;;;5089895;28;20306;-75
2021/09/05 04:26:54;;;;;;;;;;;13.10;99.90;;;;;;5064889;28;20250;-76
2021/09/05 04:29:20;;;;;;;;;;;13.10;99.90;;;;;;5074814;28;19916;-77
2021/09/05 04:31:46;;;;;;;;;;;13.10;99.90;;;;;;5081306;28;19958;-76
2021/09/05 04:34:12;;;;;;;;;;;13.10;99.90;;;;;;5091001;28;20378;-75
2021/09/05 04:36:37;;;;;;;;;;;13.10;99.90;;;;;;5094329;28;19977;-75
2021/09/05 04:39:03;;;;;;;;;;;13.00;99.90;;;;;;5094367;28;20299;-76
2021/09/05 04:41:28;;;;;;;;;;;13.00;99.90;;;;;;5093926;28;19912;-75
2021/09/05 04:43:54;;;;;;;;;;;13.00;99.90;;;;;;5094267;28;19920;-77
2021/09/05 04:46:19;;;;;;;;;;;13.10;99.90;;;;;;5094819;28;19912;-75
2021/09/05 04:48:45;;;;;;;;;;;13.10;99.90;;;;;;5094426;28;19916;-76
2021/09/05 04:51:11;;;;;;;;;;;13.10;99.90;;;;;;5094642;28;19916;-75
2021/09/05 04:53:36;;;;;;;;;;;13.10;99.90;;;;;;5075960;28;19965;-76
2021/09/05 04:56:02;;;;;;;;;;;13.10;99.90;;;;;;5094682;28;19915;-75
2021/09/05 04:58:28;;;;;;;;;;;13.10;99.90;;;;;;5080187;28;20017;-75
2021/09/05 05:00:53;;;;;;;;;;;13.00;99.90;;;;;;5089882;28;19997;-76
2021/09/05 05:03:19;;;;;;;;;;;13.00;99.90;;;;;;5094565;28;19916;-76
2021/09/05 05:05:44;;;;;;;;;;;13.00;99.90;;;;;;5093448;28;19938;-76
2021/09/05 05:08:10;;;;;;;;;;;13.00;99.90;;;;;;5076164;28;20306;-75
2021/09/05 05:10:36;;;;;;;;;;;13.00;99.90;;;;;;5076451;28;19912;-75
2021/09/05 05:13:01;;;;;;;;;;;13.10;99.90;;;;;;5093283;28;20291;-76
2021/09/05 05:15:27;;;;;;;;;;;13.00;99.90;;;;;;5074169;28;20314;-75
2021/09/05 05:17:53;;;;;;;;;;;13.00;99.90;;;;;;5089599;28;19920;-76
2021/09/05 05:20:18;;;;;;;;;;;13.10;99.90;;;;;;5086512;28;19912;-76
2021/09/05 05:22:44;;;;;;;;;;;13.10;99.90;;;;;;5084347;28;19981;-75
2021/09/05 05:25:10;;;;;;;;;;;13.10;99.90;;;;;;5085773;28;19919;-75
2021/09/05 05:27:36;;;;;;;;;;;13.00;99.90;;;;;;5093850;28;20324;-76
2021/09/05 05:30:02;;;;;;;;;;;13.10;99.90;;;;;;5094909;28;19962;-76
2021/09/05 05:32:27;;;;;;;;;;;13.10;99.90;;;;;;5076971;28;20276;-77
2021/09/05 05:34:53;;;;;;;;;;;13.10;99.90;;;;;;5076039;28;19951;-77
2021/09/05 05:37:18;;;;;;;;;;;13.10;99.90;;;;;;5094330;28;19966;-77
2021/09/05 05:39:44;;;;;;;;;;;13.20;99.90;;;;;;5075506;28;19925;-76
2021/09/05 05:42:09;;;;;;;;;;;13.20;99.90;;;;;;5094197;28;20311;-75
2021/09/05 05:44:35;;;;;;;;;;;13.20;99.90;;;;;;5093829;28;19912;-75
2021/09/05 05:47:00;;;;;;;;;;;13.20;99.90;;;;;;5074457;28;20338;-76
2021/09/05 05:49:26;;;;;;;;;;;13.20;99.90;;;;;;5094619;28;19912;-76
2021/09/05 05:51:52;;;;;;;;;;;13.20;99.90;;;;;;5096278;28;19912;-77
2021/09/05 05:54:17;;;;;;;;;;;13.20;99.90;;;;;;5093493;28;19916;-77
2021/09/05 05:56:46;;;;;;;;;;;13.30;99.90;;;;;;5091877;28;20272;-78
2021/09/05 05:59:12;;;;;;;;;;;13.30;99.90;;;;;;5091737;28;19935;-75
2021/09/05 06:01:41;;;;;;;;;;;13.30;99.90;;;;;;5075674;28;19916;-75
2021/09/05 06:04:07;;;;;;;;;;;13.30;99.90;;;;;;5074507;28;19962;-75
2021/09/05 06:06:33;;;;;;;;;;;13.30;99.90;;;;;;5093957;28;19923;-77
2021/09/05 06:09:00;;;;;;;;;;;13.30;99.90;;;;;;5075776;28;19928;-76
2021/09/05 06:11:26;;;;;;;;;;;13.40;99.90;;;;;;5092058;28;19916;-75
2021/09/05 06:13:51;;;;;;;;;;;13.50;99.90;;;;;;5075473;28;19916;-77
2021/09/05 06:16:17;;;;;;;;;;;13.50;99.90;;;;;;5076170;28;19935;-75
2021/09/05 06:18:42;;;;;;;;;;;13.60;99.90;;;;;;5078757;28;19989;-77
2021/09/05 06:21:08;;;;;;;;;;;13.60;99.90;;;;;;5072432;28;20295;-76
2021/09/05 06:23:34;;;;;;;;;;;13.70;99.90;;;;;;5087736;28;19985;-77
2021/09/05 06:25:59;;;;;;;;;;;13.70;99.90;;;;;;5083686;28;19966;-77
2021/09/05 06:28:25;;;;;;;;;;;13.70;99.90;;;;;;5078647;28;19916;-76
2021/09/05 06:30:51;;;;;;;;;;;13.70;99.90;;;;;;5094170;28;20299;-77
2021/09/05 06:33:16;;;;;;;;;;;13.80;99.90;;;;;;5096222;28;19927;-77
2021/09/05 06:35:42;;;;;;;;;;;13.80;99.90;;;;;;5093052;28;19961;-77
2021/09/05 06:38:07;;;;;;;;;;;13.80;99.90;;;;;;5077736;28;19967;-77
2021/09/05 06:40:33;;;;;;;;;;;13.90;99.90;;;;;;5078372;28;19908;-76
2021/09/05 06:42:58;;;;;;;;;;;14.00;99.90;;;;;;5093130;28;20011;-77
2021/09/05 06:45:24;;;;;;;;;;;14.00;99.90;;;;;;5075057;28;19978;-78
2021/09/05 06:47:50;;;;;;;;;;;14.10;99.90;;;;;;5076631;28;19976;-76
2021/09/05 06:50:15;;;;;;;;;;;14.10;99.90;;;;;;5088318;28;19913;-75
2021/09/05 06:52:41;;;;;;;;;;;14.10;99.90;;;;;;5072969;28;19965;-76
2021/09/05 06:55:06;;;;;;;;;;;14.20;99.90;;;;;;5089868;28;20200;-76
2021/09/05 06:57:32;;;;;;;;;;;14.30;99.90;;;;;;5090293;28;19920;-77
2021/09/05 06:59:58;;;;;;;;;;;14.40;99.90;;;;;;5088497;28;19931;-76
2021/09/05 07:02:25;;;;;;;;;;;14.50;99.90;;;;;;5088697;28;19984;-77
2021/09/05 07:04:50;;;;;;;;;;;14.60;99.90;;;;;;5072636;28;20345;-77
2021/09/05 07:07:16;;;;;;;;;;;14.70;99.90;;;;;;5068204;28;19954;-77
2021/09/05 07:09:41;;;;;;;;;;;14.80;99.90;;;;;;5086833;28;19912;-77
2021/09/05 07:12:07;;;;;;;;;;;14.90;99.90;;;;;;5096593;28;20322;-75
2021/09/05 07:14:33;;;;;;;;;;;15.00;99.90;;;;;;5085935;28;20049;-76
2021/09/05 07:16:58;;;;;;;;;;;15.00;99.90;;;;;;5078412;28;19916;-77
2021/09/05 07:19:24;;;;;;;;;;;15.20;99.90;;;;;;5096178;28;20333;-75
2021/09/05 07:21:50;;;;;;;;;;;15.30;99.90;;;;;;5085063;28;20002;-77
2021/09/05 07:24:15;;;;;;;;;;;15.40;99.90;;;;;;5095398;28;20226;-76
2021/09/05 07:26:41;;;;;;;;;;;15.60;99.90;;;;;;5096571;28;19948;-77
2021/09/05 07:29:06;;;;;;;;;;;15.70;99.90;;;;;;5095310;28;20299;-75
2021/09/05 07:31:32;;;;;;;;;;;15.80;99.90;;;;;;5078610;28;19912;-78
2021/09/05 07:33:58;;;;;;;;;;;15.90;99.90;;;;;;5095487;28;20201;-78
2021/09/05 07:36:24;;;;;;;;;;;16.00;99.90;;;;;;5093736;28;19941;-76
2021/09/05 07:38:49;;;;;;;;;;;16.10;99.90;;;;;;5077032;28;20245;-75
2021/09/05 07:41:15;;;;;;;;;;;16.10;99.90;;;;;;5070837;28;20319;-76
2021/09/05 07:43:41;;;;;;;;;;;16.00;99.90;;;;;;5083404;28;19916;-76
2021/09/05 07:46:06;;;;;;;;;;;16.10;99.90;;;;;;5082159;28;19916;-76
2021/09/05 07:48:32;;;;;;;;;;;16.20;99.90;;;;;;5068468;28;19916;-78
2021/09/05 07:50:58;;;;;;;;;;;16.40;99.90;;;;;;5088217;28;21053;-77
2021/09/05 07:53:23;;;;;;;;;;;16.60;99.90;;;;;;5087348;28;19963;-75
2021/09/05 07:55:49;;;;;;;;;;;16.70;99.90;;;;;;5086889;28;19991;-78
2021/09/05 07:58:14;;;;;;;;;;;16.80;99.90;;;;;;5068828;28;20329;-77
2021/09/05 08:00:40;;;;;;;;;;;16.90;99.90;;;;;;5069791;28;20007;-77
2021/09/05 08:03:06;;;;;;;;;;;17.00;99.90;;;;;;5068027;28;20104;-77
2021/09/05 08:05:31;;;;;;;;;;;17.20;99.90;;;;;;5085448;28;19913;-74
2021/09/05 08:07:57;;;;;;;;;;;17.30;99.90;;;;;;5070151;28;19912;-76
2021/09/05 08:10:22;;;;;;;;;;;17.30;99.90;;;;;;5089029;28;19919;-75
2021/09/05 08:12:48;;;;;;;;;;;17.50;99.90;;;;;;5087304;28;20583;-77
2021/09/05 08:15:14;;;;;;;;;;;17.60;99.90;;;;;;5072658;28;19915;-76
2021/09/05 08:17:40;;;;;;;;;;;17.70;99.90;;;;;;5087488;28;20188;-75
2021/09/05 08:20:06;;;;;;;;;;;17.80;99.90;;;;;;5068406;28;19911;-76
2021/09/05 08:22:31;;;;;;;;;;;17.90;99.90;;;;;;5087145;28;19963;-78
2021/09/05 08:24:57;;;;;;;;;;;17.90;99.90;;;;;;5087063;28;20259;-77
2021/09/05 08:27:22;;;;;;;;;;;17.90;99.90;;;;;;5069728;28;19916;-77
2021/09/05 08:29:48;;;;;;;;;;;17.90;99.90;;;;;;5086222;28;20536;-77
2021/09/05 08:32:13;;;;;;;;;;;17.80;99.90;;;;;;5068485;28;20023;-78
2021/09/05 08:34:39;;;;;;;;;;;17.90;99.90;;;;;;5089069;28;19966;-77
2021/09/05 08:37:05;;;;;;;;;;;18.00;99.90;;;;;;5069510;28;20299;-77
2021/09/05 08:39:30;;;;;;;;;;;18.00;99.90;;;;;;5091812;28;21231;-78
2021/09/05 08:41:56;;;;;;;;;;;18.10;99.90;;;;;;5088239;28;19916;-78
2021/09/05 08:44:23;;;;;;;;;;;18.30;99.90;;;;;;5069866;28;20015;-77
2021/09/05 08:46:51;;;;;;;;;;;18.30;99.90;;;;;;5067225;28;19999;-78
2021/09/05 08:49:17;;;;;;;;;;;18.40;99.90;;;;;;5088155;28;20371;-76
2021/09/05 08:51:43;;;;;;;;;;;18.50;99.90;;;;;;5071676;28;19941;-78
2021/09/05 08:54:09;;;;;;;;;;;18.70;99.90;;;;;;5088461;28;19924;-76
2021/09/05 08:56:34;;;;;;;;;;;18.80;99.90;;;;;;5088840;28;19917;-79
2021/09/05 08:59:00;;;;;;;;;;;18.80;99.90;;;;;;5085282;28;19947;-76
2021/09/05 09:01:27;;;;;;;;;;;18.70;99.90;;;;;;5088121;28;21483;-78
2021/09/05 09:04:03;;;;;;;;;;;18.70;99.90;;;;;;5060257;28;20316;-78
2021/09/05 09:06:35;;;;;;;;;;;18.70;99.90;;;;;;5065922;28;19916;-78
2021/09/05 09:09:04;;;;;;;;;;;18.70;99.90;;;;;;5094485;28;19918;-76
2021/09/05 09:11:48;;;;;;;;;;;18.70;99.90;;;;;;5075078;28;20523;-77
2021/09/05 09:14:14;;;;;;;;;;;18.80;99.90;;;;;;5073016;28;20722;-79
2021/09/05 09:16:39;;;;;;;;;;;18.90;99.90;;;;;;5092759;28;19924;-76
2021/09/05 09:19:05;;;;;;;;;;;19.00;99.90;;;;;;5091987;28;19923;-76
2021/09/05 09:21:40;;;;;;;;;;;19.10;99.90;;;;;;5073951;28;19912;-80
2021/09/05 09:24:18;;;;;;;;;;;19.10;99.90;;;;;;5093413;28;19919;-78
2021/09/05 09:26:57;;;;;;;;;;;19.10;99.90;;;;;;5092649;28;20338;-79
2021/09/05 09:29:22;;;;;;;;;;;19.10;99.90;;;;;;5073183;28;20338;-78
2021/09/05 09:31:55;;;;;;;;;;;19.00;99.90;;;;;;5078704;28;19948;-79
2021/09/05 09:34:21;;;;;;;;;;;19.00;99.90;;;;;;5066595;28;19920;-77
2021/09/05 09:36:47;;;;;;;;;;;19.10;99.90;;;;;;5082233;28;19919;-77
2021/09/05 09:39:14;;;;;;;;;;;19.20;99.90;;;;;;5069762;28;20011;-78
2021/09/05 09:41:41;;;;;;;;;;;19.10;99.90;;;;;;5081986;28;19966;-78
2021/09/05 09:44:08;;;;;;;;;;;19.20;99.90;;;;;;5088371;28;19956;-78
2021/09/05 09:46:38;;;;;;;;;;;19.10;99.90;;;;;;5088552;28;20020;-76
2021/09/05 09:49:07;;;;;;;;;;;19.10;99.90;;;;;;5074506;28;20355;-78
2021/09/05 09:51:34;;;;;;;;;;;19.20;99.90;;;;;;5069378;28;19920;-78
2021/09/05 09:54:00;;;;;;;;;;;19.30;99.90;;;;;;5069023;28;19924;-75
2021/09/05 09:56:26;;;;;;;;;;;19.30;99.90;;;;;;5081863;28;20318;-77
2021/09/05 09:58:53;;;;;;;;;;;19.30;99.90;;;;;;5067563;28;20334;-75
2021/09/05 10:01:19;;;;;;;;;;;19.20;99.90;;;;;;5066497;28;19927;-75
2021/09/05 10:03:47;;;;;;;;;;;19.30;99.90;;;;;;5068129;28;19929;-75
2021/09/05 10:06:13;;;;;;;;;;;19.30;99.90;;;;;;5064001;28;19916;-78
2021/09/05 10:08:42;;;;;;;;;;;19.30;99.90;;;;;;5085083;28;20298;-78
2021/09/05 10:11:09;;;;;;;;;;;19.20;99.90;;;;;;5084097;28;19959;-79
2021/09/05 10:13:36;;;;;;;;;;;19.20;99.90;;;;;;5090255;28;19977;-78
2021/09/05 10:16:02;;;;;;;;;;;19.30;99.90;;;;;;5066803;28;19928;-77
2021/09/05 10:18:28;;;;;;;;;;;19.40;99.90;;;;;;5085292;28;20002;-80
2021/09/05 10:20:57;;;;;;;;;;;19.50;99.90;;;;;;5073999;28;19974;-79
2021/09/05 10:23:27;;;;;;;;;;;19.50;99.90;;;;;;5068247;28;19919;-76
2021/09/05 10:25:53;;;;;;;;;;;19.50;99.90;;;;;;5090358;28;19916;-77
2021/09/05 10:28:37;;;;;;;;;;;19.60;99.90;;;;;;5072475;28;20336;-79
2021/09/05 10:31:03;;;;;;;;;;;19.60;99.90;;;;;;5073408;28;20192;-78
2021/09/05 10:33:36;;;;;;;;;;;19.60;99.90;;;;;;5067858;28;19927;-76
2021/09/05 10:36:09;;;;;;;;;;;19.70;99.90;;;;;;5074291;28;19943;-78
2021/09/05 10:38:36;;;;;;;;;;;19.70;99.90;;;;;;5088686;28;20589;-78
2021/09/05 10:41:05;;;;;;;;;;;19.80;99.90;;;;;;5088364;28;19984;-79
2021/09/05 10:43:54;;;;;;;;;;;19.80;99.90;;;;;;5089483;28;20003;-75
2021/09/05 10:46:23;;;;;;;;;;;19.80;99.90;;;;;;5081882;28;20277;-79
2021/09/05 10:48:59;;;;;;;;;;;19.80;99.90;;;;;;5072131;28;19943;-79
2021/09/05 10:51:26;;;;;;;;;;;19.80;99.90;;;;;;5075234;28;19924;-79
2021/09/05 10:53:54;;;;;;;;;;;19.90;99.90;;;;;;5092154;28;19920;-79
2021/09/05 10:56:23;;;;;;;;;;;19.90;99.90;;;;;;5078362;28;19923;-78
2021/09/05 10:58:56;;;;;;;;;;;19.90;99.90;;;;;;5081581;28;19917;-80
2021/09/05 11:01:29;;;;;;;;;;;19.80;99.90;;;;;;5079742;28;19997;-79
2021/09/05 11:04:14;;;;;;;;;;;19.90;99.90;;;;;;5062980;28;20394;-78
2021/09/05 11:06:41;;;;;;;;;;;19.90;99.90;;;;;;5081144;28;19916;-78
2021/09/05 11:09:22;;;;;;;;;;;20.00;99.90;;;;;;5059901;28;19916;-77
2021/09/05 11:11:51;;;;;;;;;;;20.00;99.90;;;;;;5067343;28;19942;-76
2021/09/05 11:14:16;;;;;;;;;;;20.00;99.90;;;;;;5077831;28;20212;-78
2021/09/05 11:16:42;;;;;;;;;;;20.00;99.90;;;;;;5082038;28;19931;-78
2021/09/05 11:19:08;;;;;;;;;;;20.00;99.90;;;;;;5080233;28;19943;-80
2021/09/05 11:21:34;;;;;;;;;;;20.00;99.90;;;;;;5086193;28;20024;-77
2021/09/05 11:24:00;;;;;;;;;;;20.10;99.90;;;;;;5075374;28;21413;-76
2021/09/05 11:26:26;;;;;;;;;;;20.20;99.90;;;;;;5075821;28;19915;-79
2021/09/05 11:28:52;;;;;;;;;;;20.20;99.90;;;;;;5093909;28;19927;-79
2021/09/05 11:31:18;;;;;;;;;;;20.20;99.90;;;;;;5085069;28;20239;-78
2021/09/05 11:33:43;;;;;;;;;;;20.20;99.90;;;;;;5093490;28;19931;-79
2021/09/05 11:36:10;;;;;;;;;;;20.20;99.90;;;;;;5073622;28;19912;-77
2021/09/05 11:38:36;;;;;;;;;;;20.20;99.90;;;;;;5073065;28;19920;-79
2021/09/05 11:41:02;;;;;;;;;;;20.30;99.90;;;;;;5063807;28;19951;-80
2021/09/05 11:43:30;;;;;;;;;;;20.30;99.90;;;;;;5090386;28;19955;-80
2021/09/05 11:45:56;;;;;;;;;;;20.40;99.90;;;;;;5087372;28;20211;-75
2021/09/05 11:48:25;;;;;;;;;;;20.50;99.90;;;;;;5080691;28;19913;-79
2021/09/05 11:50:51;;;;;;;;;;;20.60;99.90;;;;;;5074540;28;19994;-80
2021/09/05 11:53:19;;;;;;;;;;;20.60;99.90;;;;;;5087493;28;19915;-79
2021/09/05 11:55:55;;;;;;;;;;;20.60;99.90;;;;;;5090905;28;19965;-79
2021/09/05 11:58:20;;;;;;;;;;;20.70;99.90;;;;;;5093117;28;19916;-80
2021/09/05 12:00:51;;;;;;;;;;;20.70;99.90;;;;;;5071701;28;19924;-80
2021/09/05 12:03:21;;;;;;;;;;;20.80;99.90;;;;;;5079315;28;19912;-79
2021/09/05 12:05:47;;;;;;;;;;;20.90;99.90;;;;;;5093828;28;19966;-80
2021/09/05 12:08:15;;;;;;;;;;;20.90;99.90;;;;;;5092146;28;19959;-80
2021/09/05 12:10:44;;;;;;;;;;;21.00;99.90;;;;;;5091870;28;19961;-80
2021/09/05 12:13:11;;;;;;;;;;;21.00;99.90;;;;;;5099210;28;19920;-79
2021/09/05 12:15:37;;;;;;;;;;;21.00;99.90;;;;;;5070618;28;20307;-79
2021/09/05 12:18:15;;;;;;;;;;;21.00;99.90;;;;;;5073184;28;19923;-80
2021/09/05 12:20:42;;;;;;;;;;;21.00;99.90;;;;;;5092632;28;19916;-80
2021/09/05 12:23:17;;;;;;;;;;;21.00;99.90;;;;;;5081767;28;20231;-79
2021/09/05 12:25:43;;;;;;;;;;;21.00;99.90;;;;;;5093077;28;19919;-80
2021/09/05 12:28:09;;;;;;;;;;;21.10;99.90;;;;;;5078289;28;19916;-80
2021/09/05 12:30:35;;;;;;;;;;;21.00;99.90;;;;;;5083239;28;19923;-79
2021/09/05 12:33:01;;;;;;;;;;;21.00;99.90;;;;;;5080901;28;19916;-80
2021/09/05 12:35:27;;;;;;;;;;;21.00;99.90;;;;;;5096169;28;19965;-80
2021/09/05 12:38:03;;;;;;;;;;;21.10;99.90;;;;;;5072748;28;19919;-79
2021/09/05 12:40:33;;;;;;;;;;;21.10;99.90;;;;;;5084498;28;19912;-80
2021/09/05 12:42:59;;;;;;;;;;;21.10;99.90;;;;;;5072130;28;19912;-79
2021/09/05 12:45:24;;;;;;;;;;;21.10;99.90;;;;;;5091937;28;20424;-79
2021/09/05 12:47:50;;;;;;;;;;;21.10;99.90;;;;;;5064992;28;20223;-78
2021/09/05 12:50:20;;;;;;;;;;;21.20;99.90;;;;;;5078210;28;19920;-76
2021/09/05 12:52:46;;;;;;;;;;;21.30;99.90;;;;;;5081034;28;19920;-76
2021/09/05 12:55:11;;;;;;;;;;;21.30;99.90;;;;;;5068045;28;20555;-80
2021/09/05 12:57:37;;;;;;;;;;;21.30;99.90;;;;;;5073267;28;19912;-78
2021/09/05 13:00:03;;;;;;;;;;;21.30;99.90;;;;;;5091766;28;20394;-79
2021/09/05 13:02:28;;;;;;;;;;;21.30;99.90;;;;;;5073616;28;19916;-79
2021/09/05 13:04:55;;;;;;;;;;;21.30;99.90;;;;;;5066355;28;19916;-79
2021/09/05 13:07:20;;;;;;;;;;;21.30;99.90;;;;;;5069349;28;20325;-79
2021/09/05 13:09:46;;;;;;;;;;;21.20;99.90;;;;;;5087388;28;19916;-79
2021/09/05 13:12:11;;;;;;;;;;;21.30;99.90;;;;;;5086721;28;19916;-79
2021/09/05 13:14:38;;;;;;;;;;;21.30;99.90;;;;;;5090863;28;20018;-78
2021/09/05 13:17:03;;;;;;;;;;;21.30;99.90;;;;;;5084931;28;20010;-80
2021/09/05 13:19:29;;;;;;;;;;;21.40;99.90;;;;;;5091637;28;20006;-79
2021/09/05 13:21:54;;;;;;;;;;;21.40;99.90;;;;;;5088156;28;19916;-79
2021/09/05 13:24:20;;;;;;;;;;;21.50;99.90;;;;;;5066943;28;20223;-79
2021/09/05 13:26:45;;;;;;;;;;;21.60;99.90;;;;;;5073033;28;19935;-76
2021/09/05 13:29:11;;;;;;;;;;;21.60;99.90;;;;;;5076958;28;19920;-80
2021/09/05 13:31:37;;;;;;;;;;;21.60;99.90;;;;;;5084273;28;20365;-78
2021/09/05 13:34:02;;;;;;;;;;;21.60;99.90;;;;;;5100674;28;19916;-80
2021/09/05 13:36:28;;;;;;;;;;;21.50;99.90;;;;;;5073440;28;20308;-79
2021/09/05 13:38:53;;;;;;;;;;;21.50;99.90;;;;;;5073540;28;19955;-79
2021/09/05 13:41:19;;;;;;;;;;;21.50;99.90;;;;;;5090695;28;20014;-80
2021/09/05 13:43:45;;;;;;;;;;;21.50;99.90;;;;;;5090606;28;19917;-80
2021/09/05 13:46:10;;;;;;;;;;;21.60;99.90;;;;;;5091696;28;19912;-80
2021/09/05 13:48:36;;;;;;;;;;;21.60;99.90;;;;;;5085253;28;20258;-79
2021/09/05 13:51:02;;;;;;;;;;;21.60;99.90;;;;;;5094414;28;20295;-79
2021/09/05 13:53:27;;;;;;;;;;;21.70;99.90;;;;;;5077342;28;19915;-80
2021/09/05 13:55:53;;;;;;;;;;;21.70;99.90;;;;;;5093665;28;19912;-77
2021/09/05 13:58:18;;;;;;;;;;;21.80;99.90;;;;;;5077491;28;20305;-79
2021/09/05 14:00:44;;;;;;;;;;;21.90;99.90;;;;;;5095023;28;19920;-79
2021/09/05 14:03:11;;;;;;;;;;;21.90;99.90;;;;;;5073236;28;19999;-80
2021/09/05 14:05:36;;;;;;;;;;;21.90;99.90;;;;;;5071954;28;19912;-79
2021/09/05 14:08:02;;;;;;;;;;;21.90;99.90;;;;;;5094592;28;20192;-80
2021/09/05 14:10:28;;;;;;;;;;;21.80;99.90;;;;;;5087327;28;20319;-80
2021/09/05 14:12:53;;;;;;;;;;;21.80;99.90;;;;;;5088259;28;19916;-80
2021/09/05 14:15:19;;;;;;;;;;;21.90;99.90;;;;;;5089400;28;19961;-80